Time;durP1;ratioP1;P1;durP2;ratioP2;P2;SDS_P1;SDS_P2;PMS_P1;PMS_P2;Temp;Humidity;BMP_temperature;BMP_pressure;BME280_temperature;BME280_humidity;BME280_pressure;Samples;Min_cycle;Max_cycle;Signal;HPM_P1;HPM_P2
2022/12/05 04:00:53;;;;;;;;;;;1.70;99.90;;;;;;5924822;23;20006;-71
2022/12/05 04:03:22;;;;;;;;;;;1.60;99.90;;;;;;4914957;29;19962;-71
2022/12/05 04:05:51;;;;;;;;;;;1.60;99.90;;;;;;4913425;29;19931;-71
2022/12/05 04:08:19;;;;;;;;;;;1.60;99.90;;;;;;4914216;29;20433;-70
2022/12/05 04:10:51;;;;;;;;;;;1.60;99.90;;;;;;4912610;29;19981;-72
2022/12/05 04:13:20;;;;;;;;;;;1.60;99.90;;;;;;4912056;29;19931;-71
2022/12/05 04:18:36;;;;;;;;;;;1.60;99.90;;;;;;4914528;29;19967;-71
2022/12/05 04:25:31;;;;;;;;;;;1.50;99.90;;;;;;4915617;29;19923;-71
2022/12/05 04:26:35;;;;;;;;;;;1.50;99.90;;;;;;4915303;29;19934;-73
2022/12/05 04:29:04;;;;;;;;;;;1.50;99.90;;;;;;4916932;29;20013;-71
2022/12/05 04:31:33;;;;;;;;;;;1.50;99.90;;;;;;4917032;29;19979;-72
2022/12/05 04:34:04;;;;;;;;;;;1.50;99.90;;;;;;4928018;29;19927;-71
2022/12/05 04:36:32;;;;;;;;;;;1.50;99.90;;;;;;4917236;29;19931;-71
2022/12/05 04:39:02;;;;;;;;;;;1.50;99.90;;;;;;4916633;29;19931;-71
2022/12/05 04:41:30;;;;;;;;;;;1.50;99.90;;;;;;4919742;29;20446;-71
2022/12/05 04:43:59;;;;;;;;;;;1.50;99.90;;;;;;4917359;29;19934;-70
2022/12/05 04:46:25;;;;;;;;;;;1.50;99.90;;;;;;4917764;29;19927;-70
2022/12/05 04:48:53;;;;;;;;;;;1.40;99.90;;;;;;4920378;29;19927;-73
2022/12/05 04:51:23;;;;;;;;;;;1.40;99.90;;;;;;4917883;29;19934;-73
2022/12/05 04:53:54;;;;;;;;;;;1.40;99.90;;;;;;4916777;29;19935;-70
2022/12/05 04:56:22;;;;;;;;;;;1.30;99.90;;;;;;4917041;29;19931;-72
2022/12/05 04:58:48;;;;;;;;;;;1.40;99.90;;;;;;4918989;29;20430;-70
2022/12/05 05:01:17;;;;;;;;;;;1.40;99.90;;;;;;4923729;29;19935;-71
2022/12/05 05:03:45;;;;;;;;;;;1.40;99.90;;;;;;4926138;29;20346;-71
2022/12/05 05:06:13;;;;;;;;;;;1.40;99.90;;;;;;4923054;29;19927;-70
2022/12/05 05:08:47;;;;;;;;;;;1.40;99.90;;;;;;4917403;29;19928;-71
2022/12/05 05:11:15;;;;;;;;;;;1.40;99.90;;;;;;4916954;29;19928;-71
2022/12/05 05:13:42;;;;;;;;;;;1.40;99.90;;;;;;4916747;29;19927;-71
2022/12/05 05:16:13;;;;;;;;;;;1.30;99.90;;;;;;4916779;29;19934;-71
2022/12/05 05:18:40;;;;;;;;;;;1.30;99.90;;;;;;4909810;29;19927;-71
2022/12/05 05:21:07;;;;;;;;;;;1.40;99.90;;;;;;4916262;29;19931;-71
2022/12/05 05:23:33;;;;;;;;;;;1.40;99.90;;;;;;4916608;29;19934;-72
2022/12/05 05:26:01;;;;;;;;;;;1.30;99.90;;;;;;4917560;29;20338;-71
2022/12/05 05:28:28;;;;;;;;;;;1.40;99.90;;;;;;4920673;29;19927;-71
2022/12/05 05:30:55;;;;;;;;;;;1.30;99.90;;;;;;4917161;29;19927;-70
2022/12/05 05:33:22;;;;;;;;;;;1.30;99.90;;;;;;4915280;29;20323;-72
2022/12/05 05:35:48;;;;;;;;;;;1.30;99.90;;;;;;4922495;29;20382;-72
2022/12/05 05:38:15;;;;;;;;;;;1.20;99.90;;;;;;4918795;29;19939;-71
2022/12/05 05:40:42;;;;;;;;;;;1.20;99.90;;;;;;4921048;29;19927;-71
2022/12/05 05:43:10;;;;;;;;;;;1.30;99.90;;;;;;4918183;29;20301;-72
2022/12/05 05:45:37;;;;;;;;;;;1.30;99.90;;;;;;4920792;29;19931;-72
2022/12/05 05:48:04;;;;;;;;;;;1.30;99.90;;;;;;4919899;29;19931;-71
2022/12/05 05:50:31;;;;;;;;;;;1.30;99.90;;;;;;4915588;29;19931;-72
2022/12/05 05:52:58;;;;;;;;;;;1.30;99.90;;;;;;4922323;29;19927;-72
2022/12/05 05:55:25;;;;;;;;;;;1.30;99.90;;;;;;4918798;29;20468;-72
2022/12/05 05:57:52;;;;;;;;;;;1.30;99.90;;;;;;4911613;29;20342;-71
2022/12/05 06:00:20;;;;;;;;;;;1.20;99.90;;;;;;4915690;29;19927;-70
2022/12/05 06:02:47;;;;;;;;;;;1.20;99.90;;;;;;4912271;29;19935;-71
2022/12/05 06:05:14;;;;;;;;;;;1.20;99.90;;;;;;4914621;29;19931;-71
2022/12/05 06:07:41;;;;;;;;;;;1.20;99.90;;;;;;4918094;29;20011;-71
2022/12/05 06:10:08;;;;;;;;;;;1.20;99.90;;;;;;4914436;29;19934;-72
2022/12/05 06:12:35;;;;;;;;;;;1.20;99.90;;;;;;4914229;29;19931;-71
2022/12/05 06:15:01;;;;;;;;;;;1.20;99.90;;;;;;4915095;29;20022;-72
2022/12/05 06:17:29;;;;;;;;;;;1.20;99.90;;;;;;4917589;29;19934;-72
2022/12/05 06:19:56;;;;;;;;;;;1.20;99.90;;;;;;4913948;29;19935;-71
2022/12/05 06:22:23;;;;;;;;;;;1.20;99.90;;;;;;4913909;29;19927;-71
2022/12/05 06:24:50;;;;;;;;;;;1.20;99.90;;;;;;4914342;29;19927;-71
2022/12/05 06:27:17;;;;;;;;;;;1.30;99.90;;;;;;4916278;29;19979;-73
2022/12/05 06:29:43;;;;;;;;;;;1.30;99.90;;;;;;4917595;29;19990;-71
2022/12/05 06:32:10;;;;;;;;;;;1.20;99.90;;;;;;4915135;29;19927;-71
2022/12/05 06:34:38;;;;;;;;;;;1.30;99.90;;;;;;4914158;29;20006;-73
2022/12/05 06:37:05;;;;;;;;;;;1.30;99.90;;;;;;4914072;29;19931;-73
2022/12/05 06:39:32;;;;;;;;;;;1.30;99.90;;;;;;4913297;29;19938;-72
2022/12/05 06:41:59;;;;;;;;;;;1.30;99.90;;;;;;4911115;29;19927;-72
2022/12/05 06:44:27;;;;;;;;;;;1.30;99.90;;;;;;4912754;29;19931;-73
2022/12/05 06:46:54;;;;;;;;;;;1.30;99.90;;;;;;4913388;29;19932;-73
2022/12/05 06:49:21;;;;;;;;;;;1.30;99.90;;;;;;4910864;29;19931;-72
2022/12/05 06:51:49;;;;;;;;;;;1.30;99.90;;;;;;4913512;29;19931;-73
2022/12/05 06:54:16;;;;;;;;;;;1.30;99.90;;;;;;4911840;29;19927;-72
2022/12/05 06:56:43;;;;;;;;;;;1.20;99.90;;;;;;4912015;29;19927;-72
2022/12/05 06:59:10;;;;;;;;;;;1.30;99.90;;;;;;4911058;29;19931;-70
2022/12/05 07:01:39;;;;;;;;;;;1.30;99.90;;;;;;4911861;29;19930;-73
2022/12/05 07:04:07;;;;;;;;;;;1.30;99.90;;;;;;4912175;29;19927;-72
2022/12/05 07:06:34;;;;;;;;;;;1.30;99.90;;;;;;4911758;29;20434;-72
2022/12/05 07:09:03;;;;;;;;;;;1.30;99.90;;;;;;4911410;29;19927;-73
2022/12/05 07:11:30;;;;;;;;;;;1.30;99.90;;;;;;4913343;29;20425;-72
2022/12/05 07:13:56;;;;;;;;;;;1.20;99.90;;;;;;4912091;29;19932;-72
2022/12/05 07:16:24;;;;;;;;;;;1.20;99.90;;;;;;4913742;29;19927;-73
2022/12/05 07:18:50;;;;;;;;;;;1.20;99.90;;;;;;4913095;29;20394;-70
2022/12/05 07:21:19;;;;;;;;;;;1.20;99.90;;;;;;4910268;29;19927;-71
2022/12/05 07:23:46;;;;;;;;;;;1.20;99.90;;;;;;4913520;29;20393;-74
2022/12/05 07:26:16;;;;;;;;;;;1.30;99.90;;;;;;4913311;29;19927;-72
2022/12/05 07:28:42;;;;;;;;;;;1.30;99.90;;;;;;4913202;29;20034;-72
2022/12/05 07:31:10;;;;;;;;;;;1.30;99.90;;;;;;4912983;29;19927;-72
2022/12/05 07:33:37;;;;;;;;;;;1.30;99.90;;;;;;4913176;29;19934;-73
2022/12/05 07:36:05;;;;;;;;;;;1.30;99.90;;;;;;4915479;29;19927;-73
2022/12/05 07:38:32;;;;;;;;;;;1.30;99.90;;;;;;4913267;29;19931;-73
2022/12/05 07:40:59;;;;;;;;;;;1.30;99.90;;;;;;4913168;29;19927;-71
2022/12/05 07:43:27;;;;;;;;;;;1.30;99.90;;;;;;4918577;29;19927;-72
2022/12/05 07:45:54;;;;;;;;;;;1.30;99.90;;;;;;4914016;29;19927;-72
2022/12/05 07:48:21;;;;;;;;;;;1.30;99.90;;;;;;4916038;29;19927;-71
2022/12/05 07:50:48;;;;;;;;;;;1.30;99.90;;;;;;4912703;29;19935;-72
2022/12/05 07:53:14;;;;;;;;;;;1.30;99.90;;;;;;4913174;29;19935;-72
2022/12/05 07:55:41;;;;;;;;;;;1.30;99.90;;;;;;4915860;29;19931;-72
2022/12/05 07:58:08;;;;;;;;;;;1.40;99.90;;;;;;4915826;29;19927;-73
2022/12/05 08:00:36;;;;;;;;;;;1.40;99.90;;;;;;4916432;29;19935;-73
2022/12/05 08:03:03;;;;;;;;;;;1.40;99.90;;;;;;4916982;29;19987;-72
2022/12/05 08:05:30;;;;;;;;;;;1.40;99.90;;;;;;4913931;29;19931;-73
2022/12/05 08:07:57;;;;;;;;;;;1.50;99.90;;;;;;4916754;29;20378;-71
2022/12/05 08:10:23;;;;;;;;;;;1.50;99.90;;;;;;4915986;29;19931;-72
2022/12/05 08:12:50;;;;;;;;;;;1.50;99.90;;;;;;4919281;29;19931;-72
2022/12/05 08:15:17;;;;;;;;;;;1.50;99.90;;;;;;4918935;29;19927;-72
2022/12/05 08:17:45;;;;;;;;;;;1.50;99.90;;;;;;4917321;29;20290;-72
2022/12/05 08:20:12;;;;;;;;;;;1.50;99.90;;;;;;4915897;29;19976;-72
2022/12/05 08:22:39;;;;;;;;;;;1.60;99.90;;;;;;4916763;29;19930;-71
2022/12/05 08:25:07;;;;;;;;;;;1.60;99.90;;;;;;4916276;29;19934;-72
2022/12/05 08:27:34;;;;;;;;;;;1.60;99.90;;;;;;4917025;29;20016;-73
2022/12/05 08:30:01;;;;;;;;;;;1.60;99.90;;;;;;4915767;29;19960;-73
2022/12/05 08:32:27;;;;;;;;;;;1.60;99.90;;;;;;4916022;29;19943;-74
2022/12/05 08:34:56;;;;;;;;;;;1.70;99.90;;;;;;4916120;29;19927;-72
2022/12/05 08:37:22;;;;;;;;;;;1.70;99.90;;;;;;4912321;29;19934;-72
2022/12/05 08:39:49;;;;;;;;;;;1.70;99.90;;;;;;4915433;29;19927;-73
2022/12/05 08:42:16;;;;;;;;;;;1.70;99.90;;;;;;4920094;29;19935;-72
2022/12/05 08:44:43;;;;;;;;;;;1.80;99.90;;;;;;4916159;29;19931;-72
2022/12/05 08:47:10;;;;;;;;;;;1.80;99.90;;;;;;4915706;29;19931;-72
2022/12/05 08:49:36;;;;;;;;;;;1.80;99.90;;;;;;4915454;29;19927;-72
2022/12/05 08:52:05;;;;;;;;;;;1.80;99.90;;;;;;4915851;29;19931;-72
2022/12/05 08:54:31;;;;;;;;;;;1.90;99.90;;;;;;4915979;29;19935;-72
2022/12/05 08:56:59;;;;;;;;;;;1.90;99.90;;;;;;4918501;29;20298;-72
2022/12/05 08:59:26;;;;;;;;;;;1.90;99.90;;;;;;4915192;29;19927;-72
2022/12/05 09:01:52;;;;;;;;;;;1.90;99.90;;;;;;4916161;29;19931;-72
2022/12/05 09:04:19;;;;;;;;;;;2.00;99.90;;;;;;4915762;29;19931;-72
2022/12/05 09:06:46;;;;;;;;;;;1.90;99.90;;;;;;4916015;29;19927;-72
2022/12/05 09:09:14;;;;;;;;;;;1.90;99.90;;;;;;4915277;29;19938;-71
2022/12/05 09:11:45;;;;;;;;;;;1.90;99.90;;;;;;4915453;29;19927;-72
2022/12/05 09:14:12;;;;;;;;;;;1.90;99.90;;;;;;4915949;29;20294;-71
2022/12/05 09:16:39;;;;;;;;;;;2.00;99.90;;;;;;4915685;29;19927;-74
2022/12/05 09:19:06;;;;;;;;;;;1.90;99.90;;;;;;4915655;29;20065;-71
2022/12/05 09:21:33;;;;;;;;;;;1.90;99.90;;;;;;4915546;29;19927;-72
2022/12/05 09:24:00;;;;;;;;;;;1.80;99.90;;;;;;4916310;29;20314;-71
2022/12/05 09:26:29;;;;;;;;;;;1.90;99.90;;;;;;4915240;29;19934;-72
2022/12/05 09:28:57;;;;;;;;;;;1.80;99.90;;;;;;4915505;29;19962;-71
2022/12/05 09:31:25;;;;;;;;;;;1.90;99.90;;;;;;4915240;29;19927;-72
2022/12/05 09:33:52;;;;;;;;;;;1.80;99.90;;;;;;4911762;29;19927;-72
2022/12/05 09:36:20;;;;;;;;;;;1.90;99.90;;;;;;4917757;29;19927;-72
2022/12/05 09:38:47;;;;;;;;;;;1.90;99.90;;;;;;4917552;29;19934;-72
2022/12/05 09:41:20;;;;;;;;;;;1.90;99.90;;;;;;4915000;29;19935;-74
2022/12/05 09:43:50;;;;;;;;;;;1.90;99.90;;;;;;4914894;29;19970;-68
2022/12/05 09:46:20;;;;;;;;;;;2.00;99.90;;;;;;4915484;29;19931;-72
2022/12/05 09:48:48;;;;;;;;;;;2.00;99.90;;;;;;4914683;29;19944;-72
2022/12/05 09:51:14;;;;;;;;;;;2.00;99.90;;;;;;4918013;29;19938;-72
2022/12/05 09:53:42;;;;;;;;;;;2.10;99.90;;;;;;4914756;29;19931;-72
2022/12/05 09:56:13;;;;;;;;;;;2.10;99.90;;;;;;4914596;29;20350;-72
2022/12/05 09:58:44;;;;;;;;;;;2.10;99.90;;;;;;4914639;29;19979;-72
2022/12/05 10:01:20;;;;;;;;;;;2.20;99.90;;;;;;4914174;29;19950;-72
2022/12/05 10:03:49;;;;;;;;;;;2.20;99.90;;;;;;4917984;29;19942;-73
2022/12/05 10:06:18;;;;;;;;;;;2.20;99.90;;;;;;4914649;29;20378;-74
2022/12/05 10:09:03;;;;;;;;;;;2.10;99.90;;;;;;4919801;29;19930;-72
2022/12/05 10:11:34;;;;;;;;;;;2.10;99.90;;;;;;4911587;29;19927;-71
2022/12/05 10:14:05;;;;;;;;;;;2.00;99.90;;;;;;4914139;29;20450;-71
2022/12/05 10:16:35;;;;;;;;;;;2.00;99.90;;;;;;4912914;29;19927;-73
2022/12/05 10:19:04;;;;;;;;;;;2.00;99.90;;;;;;4913429;29;19935;-74
2022/12/05 10:21:33;;;;;;;;;;;2.00;99.90;;;;;;4915434;29;20360;-72
2022/12/05 10:24:01;;;;;;;;;;;2.00;99.90;;;;;;4914012;29;19927;-71
2022/12/05 10:26:30;;;;;;;;;;;2.00;99.90;;;;;;4914331;29;19931;-72
2022/12/05 10:28:58;;;;;;;;;;;2.00;99.90;;;;;;4912950;29;20383;-72
2022/12/05 10:31:27;;;;;;;;;;;2.10;99.90;;;;;;4913834;29;19931;-72
2022/12/05 10:34:01;;;;;;;;;;;2.00;99.90;;;;;;4910868;29;19931;-73
2022/12/05 10:36:28;;;;;;;;;;;2.00;99.90;;;;;;4912036;29;20398;-73
2022/12/05 10:38:56;;;;;;;;;;;2.00;99.90;;;;;;4913709;29;19938;-74
2022/12/05 10:41:23;;;;;;;;;;;2.10;99.90;;;;;;4912629;29;20406;-73
2022/12/05 10:43:49;;;;;;;;;;;2.10;99.90;;;;;;4913632;29;20465;-72
2022/12/05 10:46:17;;;;;;;;;;;2.10;99.90;;;;;;4914865;29;19931;-73
2022/12/05 10:48:44;;;;;;;;;;;2.10;99.90;;;;;;4914836;29;20033;-73
2022/12/05 10:51:13;;;;;;;;;;;2.10;99.90;;;;;;4916417;29;20339;-73
2022/12/05 10:53:41;;;;;;;;;;;2.00;99.90;;;;;;4913725;29;19931;-72
2022/12/05 10:56:41;;;;;;;;;;;2.00;99.90;;;;;;4913901;29;19927;-73
2022/12/05 10:59:08;;;;;;;;;;;1.90;99.90;;;;;;4839108;29;19929;-73
2022/12/05 11:01:35;;;;;;;;;;;2.00;99.90;;;;;;4840406;29;19932;-73
2022/12/05 11:04:05;;;;;;;;;;;2.00;99.90;;;;;;4873644;29;19927;-73
2022/12/05 11:06:35;;;;;;;;;;;2.00;99.90;;;;;;4913800;29;19927;-72
2022/12/05 11:09:03;;;;;;;;;;;2.00;99.90;;;;;;4915590;29;19927;-74
2022/12/05 11:11:32;;;;;;;;;;;2.00;99.90;;;;;;4913606;29;19927;-72
2022/12/05 11:14:01;;;;;;;;;;;2.00;99.90;;;;;;4913363;29;20410;-74
2022/12/05 11:16:30;;;;;;;;;;;2.10;99.90;;;;;;4913559;29;19927;-72
2022/12/05 11:18:56;;;;;;;;;;;2.10;99.90;;;;;;4912926;29;19939;-72
2022/12/05 11:21:23;;;;;;;;;;;2.10;99.90;;;;;;4915469;29;19934;-72
2022/12/05 11:23:51;;;;;;;;;;;2.20;99.90;;;;;;4913458;29;19935;-72
2022/12/05 11:26:19;;;;;;;;;;;2.20;99.90;;;;;;4913916;29;20283;-72
2022/12/05 11:28:46;;;;;;;;;;;2.30;99.90;;;;;;4915577;29;20294;-72
2022/12/05 11:31:26;;;;;;;;;;;2.20;99.90;;;;;;4913113;29;19933;-72
2022/12/05 11:34:01;;;;;;;;;;;2.30;99.90;;;;;;4913923;29;20306;-72
2022/12/05 11:36:34;;;;;;;;;;;2.30;99.90;;;;;;4927139;29;19927;-72
2022/12/05 11:39:02;;;;;;;;;;;2.40;99.90;;;;;;4916614;29;19934;-73
2022/12/05 11:41:37;;;;;;;;;;;2.40;99.90;;;;;;4920063;29;20358;-72
2022/12/05 11:44:25;;;;;;;;;;;2.50;99.90;;;;;;4917522;29;19934;-74
2022/12/05 11:46:57;;;;;;;;;;;2.50;99.90;;;;;;4893051;29;19927;-73
2022/12/05 11:49:31;;;;;;;;;;;2.60;99.90;;;;;;4921745;29;20390;-72
2022/12/05 11:52:02;;;;;;;;;;;2.60;99.90;;;;;;4924905;29;19927;-73
2022/12/05 11:54:42;;;;;;;;;;;2.60;99.90;;;;;;4916587;29;19938;-73
2022/12/05 11:57:14;;;;;;;;;;;2.60;99.90;;;;;;4920531;29;19927;-72
2022/12/05 12:00:02;;;;;;;;;;;2.50;99.90;;;;;;4917785;29;19982;-72
2022/12/05 12:02:47;;;;;;;;;;;2.50;99.90;;;;;;4918664;29;19934;-71
2022/12/05 12:05:17;;;;;;;;;;;2.60;99.90;;;;;;4919164;29;19949;-71
2022/12/05 12:07:55;;;;;;;;;;;2.60;99.90;;;;;;4916994;29;19934;-72
2022/12/05 12:10:29;;;;;;;;;;;2.60;99.90;;;;;;4912108;29;20027;-72
2022/12/05 12:13:04;;;;;;;;;;;2.60;99.90;;;;;;4913552;29;19935;-72
2022/12/05 12:15:49;;;;;;;;;;;2.60;99.90;;;;;;4915326;29;19927;-72
2022/12/05 12:18:19;;;;;;;;;;;2.60;99.90;;;;;;4904307;29;19927;-73
2022/12/05 12:20:53;;;;;;;;;;;2.60;99.90;;;;;;4917186;29;19950;-74
2022/12/05 12:23:27;;;;;;;;;;;2.60;99.90;;;;;;4912154;29;19934;-72
2022/12/05 12:26:04;;;;;;;;;;;2.60;99.90;;;;;;4914711;29;20328;-73
2022/12/05 12:28:35;;;;;;;;;;;2.60;99.90;;;;;;4916283;29;19931;-71
2022/12/05 12:31:06;;;;;;;;;;;2.60;99.90;;;;;;4916147;29;19935;-71
2022/12/05 12:33:34;;;;;;;;;;;2.60;99.90;;;;;;4914337;29;20013;-72
2022/12/05 12:36:07;;;;;;;;;;;2.60;99.90;;;;;;4918613;29;19927;-72
2022/12/05 12:38:39;;;;;;;;;;;2.60;99.90;;;;;;4915742;29;19934;-72
2022/12/05 12:41:13;;;;;;;;;;;2.60;99.90;;;;;;4917535;29;19927;-72
2022/12/05 12:43:46;;;;;;;;;;;2.60;99.90;;;;;;4915362;29;19927;-73
2022/12/05 12:46:20;;;;;;;;;;;2.60;99.90;;;;;;4918576;29;19943;-72
2022/12/05 12:48:54;;;;;;;;;;;2.60;99.90;;;;;;4915682;29;19935;-72
2022/12/05 12:51:21;;;;;;;;;;;2.50;99.90;;;;;;4913728;29;20371;-72
2022/12/05 12:54:00;;;;;;;;;;;2.60;99.90;;;;;;4915969;29;20450;-74
2022/12/05 12:56:37;;;;;;;;;;;2.50;99.90;;;;;;4914584;29;19931;-72
2022/12/05 12:59:09;;;;;;;;;;;2.50;99.90;;;;;;4913691;29;20287;-72
2022/12/05 13:01:39;;;;;;;;;;;2.40;99.90;;;;;;4915191;29;19927;-74
2022/12/05 13:04:11;;;;;;;;;;;2.40;99.90;;;;;;4915563;29;19934;-72
2022/12/05 13:06:40;;;;;;;;;;;2.40;99.90;;;;;;4918780;29;19927;-73
2022/12/05 13:09:11;;;;;;;;;;;2.40;99.90;;;;;;4915033;29;19978;-72
2022/12/05 13:11:41;;;;;;;;;;;2.30;99.90;;;;;;4913168;29;19928;-73
2022/12/05 13:14:11;;;;;;;;;;;2.30;99.90;;;;;;4918763;29;19950;-73
2022/12/05 13:16:39;;;;;;;;;;;2.20;99.90;;;;;;4914105;29;19931;-72
2022/12/05 13:19:06;;;;;;;;;;;2.20;99.90;;;;;;4914757;29;20362;-72
2022/12/05 13:21:33;;;;;;;;;;;2.20;99.90;;;;;;4915193;29;20418;-72
2022/12/05 13:24:02;;;;;;;;;;;2.20;99.90;;;;;;4915347;29;19927;-72
2022/12/05 13:26:29;;;;;;;;;;;2.10;99.90;;;;;;4915401;29;20351;-74
2022/12/05 13:28:58;;;;;;;;;;;2.10;99.90;;;;;;4909079;29;20005;-74
2022/12/05 13:31:35;;;;;;;;;;;2.00;99.90;;;;;;4918160;29;19927;-72
2022/12/05 13:34:02;;;;;;;;;;;2.00;99.90;;;;;;4912868;29;19934;-73
2022/12/05 13:42:13;;;;;;;;;;;1.90;99.90;;;;;;4930913;29;19923;-74
2022/12/05 13:44:42;;;;;;;;;;;1.90;99.90;;;;;;4914754;29;19927;-73
2022/12/05 13:47:20;;;;;;;;;;;1.90;99.90;;;;;;4915422;29;20382;-72
2022/12/05 13:49:49;;;;;;;;;;;1.90;99.90;;;;;;4914373;29;19970;-74
2022/12/05 13:52:21;;;;;;;;;;;1.90;99.90;;;;;;4918934;29;19931;-72
2022/12/05 13:54:51;;;;;;;;;;;1.90;99.90;;;;;;4914586;29;19935;-73
2022/12/05 13:57:43;;;;;;;;;;;1.90;99.90;;;;;;4917839;29;20397;-72
2022/12/05 14:00:22;;;;;;;;;;;1.80;99.90;;;;;;4912551;29;19927;-73
2022/12/05 14:02:51;;;;;;;;;;;1.80;99.90;;;;;;4914518;29;20459;-72
2022/12/05 14:05:38;;;;;;;;;;;1.70;99.90;;;;;;4917599;29;19931;-72
2022/12/05 14:08:34;;;;;;;;;;;1.70;99.90;;;;;;4911398;29;20351;-72
2022/12/05 14:11:09;;;;;;;;;;;1.70;99.90;;;;;;4897270;29;19935;-73
2022/12/05 14:13:40;;;;;;;;;;;1.70;99.90;;;;;;4913799;29;19926;-72
2022/12/05 14:16:26;;;;;;;;;;;1.70;99.90;;;;;;4914333;29;20402;-71
2022/12/05 14:18:58;;;;;;;;;;;1.70;99.90;;;;;;4909056;29;19928;-72
2022/12/05 14:21:34;;;;;;;;;;;1.70;99.90;;;;;;4907306;29;20311;-73
2022/12/05 14:24:04;;;;;;;;;;;1.60;99.90;;;;;;4912838;29;19927;-73
2022/12/05 14:26:43;;;;;;;;;;;1.60;99.90;;;;;;4914042;29;19927;-71
2022/12/05 14:29:24;;;;;;;;;;;1.70;99.90;;;;;;4914435;29;19934;-73
2022/12/05 14:32:01;;;;;;;;;;;1.60;99.90;;;;;;4917190;29;19931;-72
2022/12/05 14:34:31;;;;;;;;;;;1.60;99.90;;;;;;4917188;29;19953;-70
2022/12/05 14:37:00;;;;;;;;;;;1.50;99.90;;;;;;4916329;29;19931;-72
2022/12/05 14:39:36;;;;;;;;;;;1.50;99.90;;;;;;4914194;29;19927;-73
2022/12/05 14:42:05;;;;;;;;;;;1.50;99.90;;;;;;4915482;29;19927;-72
2022/12/05 14:44:33;;;;;;;;;;;1.50;99.90;;;;;;4913549;29;20395;-72
2022/12/05 14:47:02;;;;;;;;;;;1.40;99.90;;;;;;4914495;29;20014;-71
2022/12/05 14:49:35;;;;;;;;;;;1.30;99.90;;;;;;4912998;29;19955;-73
2022/12/05 14:52:10;;;;;;;;;;;1.40;99.90;;;;;;4913531;29;20318;-72
2022/12/05 14:54:37;;;;;;;;;;;1.30;99.90;;;;;;4913654;29;20025;-72
2022/12/05 14:57:08;;;;;;;;;;;1.30;99.90;;;;;;4917131;29;19979;-72
2022/12/05 14:59:39;;;;;;;;;;;1.30;99.90;;;;;;4914538;29;20296;-73
2022/12/05 15:02:06;;;;;;;;;;;1.30;99.90;;;;;;4913356;29;19927;-72
2022/12/05 15:04:36;;;;;;;;;;;1.30;99.90;;;;;;4913611;29;19931;-70
2022/12/05 15:07:08;;;;;;;;;;;1.30;99.90;;;;;;4911587;29;19927;-71
2022/12/05 15:09:44;;;;;;;;;;;1.30;99.90;;;;;;4908959;29;20359;-71
2022/12/05 15:12:14;;;;;;;;;;;1.20;99.90;;;;;;4912468;29;20393;-73
2022/12/05 15:14:44;;;;;;;;;;;1.30;99.90;;;;;;4913373;29;19989;-71
2022/12/05 15:17:13;;;;;;;;;;;1.30;99.90;;;;;;4913642;29;19973;-71
2022/12/05 15:19:44;;;;;;;;;;;1.20;99.90;;;;;;4914190;29;20110;-71
2022/12/05 15:22:14;;;;;;;;;;;1.20;99.90;;;;;;4913690;29;19927;-71
2022/12/05 15:24:40;;;;;;;;;;;1.20;99.90;;;;;;4913459;29;19966;-74
2022/12/05 15:27:10;;;;;;;;;;;1.20;99.90;;;;;;4913566;29;19931;-71
2022/12/05 15:29:37;;;;;;;;;;;1.20;99.90;;;;;;4918404;29;19950;-72
2022/12/05 15:32:06;;;;;;;;;;;1.20;99.90;;;;;;4913695;29;19983;-72
2022/12/05 15:34:36;;;;;;;;;;;1.20;99.90;;;;;;4913274;29;20010;-71
2022/12/05 15:37:06;;;;;;;;;;;1.20;99.90;;;;;;4913921;29;20005;-72
2022/12/05 15:39:50;;;;;;;;;;;1.20;99.90;;;;;;4912621;29;19934;-73
2022/12/05 15:42:17;;;;;;;;;;;1.20;99.90;;;;;;4913402;29;19998;-72
2022/12/05 15:44:44;;;;;;;;;;;1.20;99.90;;;;;;4913274;29;19927;-73
2022/12/05 15:47:18;;;;;;;;;;;1.20;99.90;;;;;;4913470;29;19957;-71
2022/12/05 15:49:45;;;;;;;;;;;1.20;99.90;;;;;;4917615;29;19926;-71
2022/12/05 15:52:16;;;;;;;;;;;1.20;99.90;;;;;;4917500;29;19979;-73
2022/12/05 15:54:43;;;;;;;;;;;1.10;99.90;;;;;;4918227;29;19931;-72
2022/12/05 15:57:14;;;;;;;;;;;1.20;99.90;;;;;;4912178;29;19934;-72
2022/12/05 15:59:45;;;;;;;;;;;1.20;99.90;;;;;;4915827;29;20363;-71
2022/12/05 16:02:14;;;;;;;;;;;1.20;99.90;;;;;;4939062;23;19931;-67
2022/12/05 16:04:45;;;;;;;;;;;1.10;99.90;;;;;;4916199;29;19931;-67
2022/12/05 16:07:13;;;;;;;;;;;1.10;99.90;;;;;;4913253;29;19983;-64
2022/12/05 16:09:41;;;;;;;;;;;1.10;99.90;;;;;;4915616;29;19934;-68
2022/12/05 16:12:19;;;;;;;;;;;1.10;99.90;;;;;;4919900;29;19934;-67
2022/12/05 16:14:49;;;;;;;;;;;1.10;99.90;;;;;;4931444;29;19966;-67
2022/12/05 16:17:16;;;;;;;;;;;1.10;99.90;;;;;;4951474;28;19982;-67
2022/12/05 16:19:43;;;;;;;;;;;1.10;99.90;;;;;;4933865;29;19931;-67
2022/12/05 16:22:19;;;;;;;;;;;1.10;99.90;;;;;;4933342;29;19968;-70
2022/12/05 16:24:48;;;;;;;;;;;1.10;99.90;;;;;;4947577;29;19931;-70
2022/12/05 16:27:15;;;;;;;;;;;1.10;99.90;;;;;;4932771;29;19962;-67
2022/12/05 16:29:44;;;;;;;;;;;1.10;99.90;;;;;;4933530;29;20402;-68
2022/12/05 16:32:18;;;;;;;;;;;1.10;99.90;;;;;;4951380;29;20042;-68
2022/12/05 16:34:45;;;;;;;;;;;1.10;99.90;;;;;;4935965;29;19927;-69
2022/12/05 16:37:17;;;;;;;;;;;1.10;99.90;;;;;;4937081;28;20037;-69
2022/12/05 16:39:44;;;;;;;;;;;1.00;99.90;;;;;;4935906;29;19927;-69
2022/12/05 16:42:22;;;;;;;;;;;1.00;99.90;;;;;;4951887;28;19973;-69
2022/12/05 16:45:00;;;;;;;;;;;1.00;99.90;;;;;;4952038;29;19930;-69
2022/12/05 16:47:42;;;;;;;;;;;1.00;99.90;;;;;;4945248;29;19931;-69
2022/12/05 16:50:21;;;;;;;;;;;1.10;99.90;;;;;;4940681;29;19926;-69
2022/12/05 16:52:49;;;;;;;;;;;1.00;99.90;;;;;;4951733;28;20350;-69
2022/12/05 16:55:16;;;;;;;;;;;1.00;99.90;;;;;;4939356;28;19927;-69
2022/12/05 16:57:43;;;;;;;;;;;1.00;99.90;;;;;;4950477;28;19927;-69
2022/12/05 17:00:14;;;;;;;;;;;1.00;99.90;;;;;;4951280;28;19927;-68
2022/12/05 17:02:41;;;;;;;;;;;1.00;99.90;;;;;;4935760;29;19947;-68
2022/12/05 17:05:13;;;;;;;;;;;1.00;99.90;;;;;;4951728;28;19938;-68
2022/12/05 17:07:39;;;;;;;;;;;1.00;99.90;;;;;;4929800;29;19927;-69
2022/12/05 17:10:07;;;;;;;;;;;1.00;99.90;;;;;;4934212;29;20390;-69
2022/12/05 17:12:34;;;;;;;;;;;1.00;99.90;;;;;;4947837;28;19927;-69
2022/12/05 17:15:01;;;;;;;;;;;1.00;99.90;;;;;;4951021;28;19978;-69
2022/12/05 17:17:29;;;;;;;;;;;1.00;99.90;;;;;;4933305;29;19937;-68
2022/12/05 17:19:56;;;;;;;;;;;1.00;99.90;;;;;;4931857;29;19930;-68
2022/12/05 17:22:22;;;;;;;;;;;1.00;99.90;;;;;;4935310;29;19942;-68
2022/12/05 17:24:49;;;;;;;;;;;1.00;99.90;;;;;;4936495;29;19930;-68
2022/12/05 17:27:16;;;;;;;;;;;1.00;99.90;;;;;;4934488;29;19931;-69
2022/12/05 17:29:43;;;;;;;;;;;1.00;99.90;;;;;;4937313;29;19926;-68
2022/12/05 17:32:10;;;;;;;;;;;1.10;99.90;;;;;;4935368;29;19934;-69
2022/12/05 17:34:38;;;;;;;;;;;1.10;99.90;;;;;;4948969;28;19967;-68
2022/12/05 17:37:05;;;;;;;;;;;1.00;99.90;;;;;;4949293;28;19927;-70
2022/12/05 17:39:32;;;;;;;;;;;1.00;99.90;;;;;;4949717;28;19931;-68
2022/12/05 17:41:58;;;;;;;;;;;1.00;99.90;;;;;;4952766;28;19931;-68
2022/12/05 17:44:25;;;;;;;;;;;1.00;99.90;;;;;;4946870;29;20474;-68
2022/12/05 17:46:52;;;;;;;;;;;1.00;99.90;;;;;;4947041;28;19926;-69
2022/12/05 17:49:19;;;;;;;;;;;1.00;99.90;;;;;;4950196;28;19927;-70
2022/12/05 17:51:48;;;;;;;;;;;0.90;99.90;;;;;;4936816;29;19927;-65
2022/12/05 17:54:14;;;;;;;;;;;1.00;99.90;;;;;;4951176;28;19935;-72
2022/12/05 17:56:41;;;;;;;;;;;1.00;99.90;;;;;;4939357;29;19931;-70
2022/12/05 17:59:08;;;;;;;;;;;1.00;99.90;;;;;;4942199;28;19938;-70
2022/12/05 18:01:35;;;;;;;;;;;1.00;99.90;;;;;;4950042;28;19934;-70
2022/12/05 18:04:02;;;;;;;;;;;1.00;99.90;;;;;;4942795;28;19927;-70
2022/12/05 18:06:29;;;;;;;;;;;1.00;99.90;;;;;;4951086;28;19931;-73
2022/12/05 18:08:57;;;;;;;;;;;1.00;99.90;;;;;;4940969;29;19933;-70
2022/12/05 18:11:24;;;;;;;;;;;1.00;99.90;;;;;;4934758;29;19986;-70
2022/12/05 18:13:51;;;;;;;;;;;1.00;99.90;;;;;;4952727;28;19935;-70
2022/12/05 18:16:17;;;;;;;;;;;1.00;99.90;;;;;;4956904;28;19926;-69
2022/12/05 18:18:44;;;;;;;;;;;1.00;99.90;;;;;;4952844;28;20450;-69
2022/12/05 18:21:12;;;;;;;;;;;1.00;99.90;;;;;;4956790;28;19927;-69
2022/12/05 18:23:40;;;;;;;;;;;1.00;99.90;;;;;;4950396;28;19927;-69
2022/12/05 18:26:09;;;;;;;;;;;1.00;99.90;;;;;;4955551;28;19970;-70
2022/12/05 18:28:37;;;;;;;;;;;1.00;99.90;;;;;;4949416;28;19930;-70
2022/12/05 18:31:31;;;;;;;;;;;1.00;99.90;;;;;;5092893;27;19913;-68
2022/12/05 18:33:58;;;;;;;;;;;1.10;99.90;;;;;;5097094;28;20348;-68
2022/12/05 18:36:24;;;;;;;;;;;1.10;99.90;;;;;;5100024;28;19971;-68
2022/12/05 18:38:51;;;;;;;;;;;1.10;99.90;;;;;;5092081;28;19925;-66
2022/12/05 18:41:19;;;;;;;;;;;1.10;99.90;;;;;;5093211;28;20373;-68
2022/12/05 18:43:46;;;;;;;;;;;1.00;99.90;;;;;;5097478;28;19924;-68
2022/12/05 18:46:12;;;;;;;;;;;1.00;99.90;;;;;;5098732;28;20290;-68
2022/12/05 18:48:41;;;;;;;;;;;1.10;99.90;;;;;;5101855;28;19928;-69
2022/12/05 18:51:09;;;;;;;;;;;1.10;99.90;;;;;;5097818;28;19924;-69
2022/12/05 18:53:36;;;;;;;;;;;1.00;99.90;;;;;;5100723;28;19924;-69
2022/12/05 18:56:03;;;;;;;;;;;1.00;99.90;;;;;;5104625;28;19935;-69